首页
METAR-TAF:

METAR-TAF

机场 :

卡尔维, 法国

纬度: 42-32N, 经度: 008-48E, 海拔: 64米

当前天气观测

该预报发布于29分钟前的07:00 UTC
风速4节,风向,在南转南东西转西南之间变化
温度 10°C
湿度 87%
气压 1003 hPa
能见度10公里或以上

METAR: LFKC 170700Z AUTO 19004KT 160V250 9999 FEW019/// BKN026/// OVC042/// ///TCU 10/08 Q1003 BECMG 02012G22KT SCT060

时间: 08:29 (07:29 UTC)

预报

该预报发布于5小时和29分钟前的02:00 UTC
预报有效从17日的 03点(UTC)到 18日的 03点(UTC)
风速12节,风向北转东北,有时为22节阵风
能见度10公里或以上
散云层高于6000英尺
多云层高于8000英尺
小雨
短暂存在
从 17日的 03点(UTC)到 17日的 06点(UTC)
风速15节,风向,有时为25节阵风
能見度: 4000
多云层高于1500英尺
阴天层高于3000英尺
阵雨, 轻雾
成为
从 17日的 06点(UTC)到 17日的 08点(UTC)
散云层高于6000英尺
成为
从 17日的 10点(UTC)到 17日的 11点(UTC)
风速15节,风向南转西南,有时为30节阵风
短暂存在
从 17日的 11点(UTC)到 17日的 14点(UTC)
风速17节,风向南转西南,有时为30节阵风
成为
从 17日的 22点(UTC)到 17日的 24点(UTC)
风速6节,风向

TAF: LFKC 170200Z 1703/1803 02012G22KT 9999 -RA SCT060 BKN080 TX13/1712Z TN09/1704Z TEMPO 1703/1706 36015G25KT 4000 SHRA BR BKN015 OVC030 BECMG 1706/1708 NSW SCT060 BECMG 1710/1711 20015G30KT NSC TEMPO 1711/1714 20017G30KT BECMG 1722/1724 18006KT

超过4000个机场的气象观测和天气预报(METAR&TAF报告)。

可查询的气象台以黄色和红色小点在地图上表示。

将鼠标移到小点上方,可查看气象台名称。

然后点击查看天气观测和预报。

如需切换地图:点击带黑十字的绿色按钮放大地图;点击带横线的绿色按钮缩小地图;或者点击绿色箭头查看邻近地区的地图。


METAR-TAF: